Time,TemperatureF,DewpointF,PressureIn,WindDirection,WindDirectionDegrees,WindSpeedMPH,WindSpeedGustMPH,Humidity,HourlyPrecipIn,Conditions,Clouds,dailyrainin,SoftwareType,DateUTC
2013-08-26 00:12:00,79.8,68.0,29.97,SE,146,0.0,3.0,67,0.00,,,0.00,weatherlink.com 1.10,2013-08-26 05:12:00,
2013-08-26 00:27:00,79.5,68.0,29.97,SE,146,0.0,2.0,68,0.00,,,0.00,weatherlink.com 1.10,2013-08-26 05:27:00,
2013-08-26 00:42:00,79.5,68.0,29.97,SE,146,4.0,7.0,69,0.00,,,0.00,weatherlink.com 1.10,2013-08-26 05:42:00,
2013-08-26 00:57:00,79.6,69.0,29.97,SE,146,3.0,5.0,69,0.00,,,0.00,weatherlink.com 1.10,2013-08-26 05:57:00,
2013-08-26 01:12:00,79.2,69.0,29.96,SE,146,0.0,1.0,70,0.00,,,0.00,weatherlink.com 1.10,2013-08-26 06:12:00,
2013-08-26 01:27:00,78.3,69.0,29.97,SE,146,0.0,2.0,72,0.00,,,0.00,weatherlink.com 1.10,2013-08-26 06:27:00,
2013-08-26 01:42:00,77.8,69.0,29.97,SE,146,0.0,4.0,73,0.00,,,0.00,weatherlink.com 1.10,2013-08-26 06:42:00,
2013-08-26 01:57:00,77.4,69.0,29.97,SE,146,2.0,3.0,74,0.00,,,0.00,weatherlink.com 1.10,2013-08-26 06:57:00,
2013-08-26 02:12:00,77.2,69.0,29.97,SE,146,0.0,5.0,75,0.00,,,0.00,weatherlink.com 1.10,2013-08-26 07:12:00,
2013-08-26 02:27:00,77.0,69.0,29.97,SE,146,0.0,3.0,75,0.00,,,0.00,weatherlink.com 1.10,2013-08-26 07:27:00,
2013-08-26 02:42:00,76.7,69.0,29.97,SE,146,1.0,3.0,76,0.00,,,0.00,weatherlink.com 1.10,2013-08-26 07:42:00,
2013-08-26 02:57:00,76.4,69.0,29.97,SE,146,0.0,3.0,77,0.00,,,0.00,weatherlink.com 1.10,2013-08-26 07:57:00,
2013-08-26 03:12:00,76.2,69.0,29.97,SE,146,0.0,3.0,77,0.00,,,0.00,weatherlink.com 1.10,2013-08-26 08:12:00,
2013-08-26 03:27:00,75.8,69.0,29.97,SE,146,0.0,1.0,78,0.00,,,0.00,weatherlink.com 1.10,2013-08-26 08:27:00,
2013-08-26 03:42:00,75.4,69.0,29.97,SE,146,1.0,4.0,79,0.00,,,0.00,weatherlink.com 1.10,2013-08-26 08:42:00,
2013-08-26 03:57:00,75.2,68.0,29.97,SE,146,0.0,1.0,79,0.00,,,0.00,weatherlink.com 1.10,2013-08-26 08:57:00,
2013-08-26 04:12:00,74.7,69.0,29.97,SE,146,0.0,2.0,81,0.00,,,0.00,weatherlink.com 1.10,2013-08-26 09:12:00,
2013-08-26 04:27:00,74.4,69.0,29.97,SE,146,1.0,1.0,82,0.00,,,0.00,weatherlink.com 1.10,2013-08-26 09:27:00,
2013-08-26 04:42:00,74.3,69.0,29.97,SE,146,0.0,2.0,82,0.00,,,0.00,weatherlink.com 1.10,2013-08-26 09:42:00,
2013-08-26 04:57:00,74.2,69.0,29.97,SE,146,0.0,1.0,83,0.00,,,0.00,weatherlink.com 1.10,2013-08-26 09:57:00,
2013-08-26 05:12:00,73.9,69.0,29.97,SE,146,0.0,2.0,84,0.00,,,0.00,weatherlink.com 1.10,2013-08-26 10:12:00,
2013-08-26 05:27:00,73.7,69.0,29.97,SE,146,0.0,1.0,84,0.00,,,0.00,weatherlink.com 1.10,2013-08-26 10:27:00,
2013-08-26 05:42:00,73.7,69.0,29.97,SE,146,0.0,1.0,84,0.00,,,0.00,weatherlink.com 1.10,2013-08-26 10:42:00,
2013-08-26 05:57:00,73.6,69.0,29.98,SE,146,0.0,1.0,85,0.00,,,0.00,weatherlink.com 1.10,2013-08-26 10:57:00,
2013-08-26 06:12:00,73.5,69.0,29.98,SE,146,0.0,1.0,85,0.00,,,0.00,weatherlink.com 1.10,2013-08-26 11:12:00,
2013-08-26 06:27:00,73.4,69.0,29.98,SE,146,1.0,3.0,85,0.00,,,0.00,weatherlink.com 1.10,2013-08-26 11:27:00,
2013-08-26 06:42:00,73.0,68.0,29.99,SE,146,0.0,2.0,85,0.00,,,0.00,weatherlink.com 1.10,2013-08-26 11:42:00,
2013-08-26 06:57:00,73.1,69.0,29.99,SE,146,1.0,4.0,86,0.00,,,0.00,weatherlink.com 1.10,2013-08-26 11:57:00,
2013-08-26 07:12:00,73.0,69.0,29.99,SE,146,2.0,4.0,86,0.00,,,0.00,weatherlink.com 1.10,2013-08-26 12:12:00,
2013-08-26 07:27:00,73.0,69.0,29.99,SE,146,0.0,4.0,86,0.00,,,0.00,weatherlink.com 1.10,2013-08-26 12:27:00,
2013-08-26 07:42:00,73.4,69.0,29.99,SE,143,0.0,4.0,86,0.00,,,0.00,weatherlink.com 1.10,2013-08-26 12:42:00,
2013-08-26 07:57:00,74.4,69.0,30.00,SE,142,2.0,4.0,84,0.00,,,0.00,weatherlink.com 1.10,2013-08-26 12:57:00,
2013-08-26 08:12:00,74.4,69.0,30.00,SE,140,1.0,4.0,84,0.00,,,0.00,weatherlink.com 1.10,2013-08-26 13:12:00,
2013-08-26 08:27:00,74.4,70.0,30.00,SE,140,0.0,6.0,85,0.00,,,0.00,weatherlink.com 1.10,2013-08-26 13:27:00,
2013-08-26 08:42:00,74.9,70.0,30.00,SE,127,2.0,6.0,84,0.00,,,0.00,weatherlink.com 1.10,2013-08-26 13:42:00,
2013-08-26 08:57:00,75.6,70.0,30.00,ESE,121,3.0,7.0,83,0.00,,,0.00,weatherlink.com 1.10,2013-08-26 13:57:00,
2013-08-26 09:13:00,76.4,70.0,30.00,East,98,3.0,8.0,81,0.00,,,0.00,weatherlink.com 1.10,2013-08-26 14:13:00,
2013-08-26 09:28:00,76.8,71.0,30.01,East,97,2.0,8.0,81,0.00,,,0.00,weatherlink.com 1.10,2013-08-26 14:28:00,
2013-08-26 09:43:00,77.3,71.0,30.02,East,82,1.0,8.0,80,0.00,,,0.00,weatherlink.com 1.10,2013-08-26 14:43:00,
2013-08-26 09:58:00,77.6,71.0,30.02,ESE,102,3.0,9.0,79,0.00,,,0.00,weatherlink.com 1.10,2013-08-26 14:58:00,
2013-08-26 10:13:00,78.8,70.0,30.02,ESE,111,1.0,10.0,75,0.00,,,0.00,weatherlink.com 1.10,2013-08-26 15:13:00,
2013-08-26 10:28:00,79.4,70.0,30.02,East,96,7.0,9.0,74,0.00,,,0.00,weatherlink.com 1.10,2013-08-26 15:28:00,
2013-08-26 10:43:00,80.4,70.0,30.02,ENE,72,1.0,9.0,71,0.00,,,0.00,weatherlink.com 1.10,2013-08-26 15:43:00,
2013-08-26 10:58:00,81.2,70.0,30.02,ESE,103,5.0,7.0,69,0.00,,,0.00,weatherlink.com 1.10,2013-08-26 15:58:00,
2013-08-26 11:13:00,81.4,69.0,30.02,East,90,6.0,13.0,67,0.00,,,0.00,weatherlink.com 1.10,2013-08-26 16:13:00,
2013-08-26 11:28:00,81.3,69.0,30.02,ENE,71,1.0,9.0,67,0.00,,,0.00,weatherlink.com 1.10,2013-08-26 16:28:00,
2013-08-26 11:43:00,83.3,69.0,30.02,SE,127,5.0,11.0,63,0.00,,,0.00,weatherlink.com 1.10,2013-08-26 16:43:00,
2013-08-26 11:58:00,82.9,69.0,30.02,East,96,8.0,9.0,63,0.00,,,0.00,weatherlink.com 1.10,2013-08-26 16:58:00,
2013-08-26 12:13:00,82.4,69.0,30.01,ESE,108,5.0,11.0,65,0.00,,,0.00,weatherlink.com 1.10,2013-08-26 17:13:00,
2013-08-26 12:28:00,83.1,69.0,30.01,East,96,6.0,14.0,62,0.00,,,0.00,weatherlink.com 1.10,2013-08-26 17:28:00,
2013-08-26 12:43:00,83.4,69.0,30.01,East,86,5.0,10.0,62,0.00,,,0.00,weatherlink.com 1.10,2013-08-26 17:43:00,
2013-08-26 12:58:00,83.2,69.0,30.00,East,92,3.0,10.0,62,0.00,,,0.00,weatherlink.com 1.10,2013-08-26 17:58:00,
2013-08-26 13:13:00,83.2,69.0,29.99,East,89,5.0,11.0,62,0.00,,,0.00,weatherlink.com 1.10,2013-08-26 18:13:00,
2013-08-26 13:28:00,84.1,69.0,29.99,SSE,153,4.0,9.0,61,0.00,,,0.00,weatherlink.com 1.10,2013-08-26 18:28:00,
2013-08-26 13:43:00,84.5,70.0,29.98,East,90,0.0,9.0,61,0.00,,,0.00,weatherlink.com 1.10,2013-08-26 18:43:00,
2013-08-26 13:58:00,85.0,70.0,29.98,ESE,122,7.0,8.0,60,0.00,,,0.00,weatherlink.com 1.10,2013-08-26 18:58:00,
2013-08-26 14:13:00,84.9,68.0,29.97,ESE,109,4.0,7.0,58,0.00,,,0.00,weatherlink.com 1.10,2013-08-26 19:13:00,
2013-08-26 14:28:00,85.8,68.0,29.97,East,79,5.0,11.0,55,0.00,,,0.00,weatherlink.com 1.10,2013-08-26 19:28:00,
2013-08-26 14:59:00,86.6,70.0,29.95,East,101,1.0,7.0,57,0.00,,,0.00,weatherlink.com 1.10,2013-08-26 19:59:00,
2013-08-26 15:14:00,86.5,68.0,29.94,ENE,74,4.0,7.0,55,0.00,,,0.00,weatherlink.com 1.10,2013-08-26 20:14:00,
2013-08-26 15:29:00,87.7,69.0,29.94,ENE,72,1.0,8.0,54,0.00,,,0.00,weatherlink.com 1.10,2013-08-26 20:29:00,
2013-08-26 15:59:00,89.2,68.0,29.93,ESE,121,2.0,9.0,50,0.00,,,0.00,weatherlink.com 1.10,2013-08-26 20:59:00,
2013-08-26 16:14:00,87.9,68.0,29.93,ENE,69,2.0,9.0,51,0.00,,,0.00,weatherlink.com 1.10,2013-08-26 21:14:00,
2013-08-26 16:29:00,88.0,68.0,29.92,ENE,78,2.0,9.0,52,0.00,,,0.00,weatherlink.com 1.10,2013-08-26 21:29:00,
2013-08-26 16:44:00,89.4,68.0,29.92,ENE,63,5.0,9.0,49,0.00,,,0.00,weatherlink.com 1.10,2013-08-26 21:44:00,
2013-08-26 16:59:00,88.8,68.0,29.91,ESE,107,1.0,10.0,50,0.00,,,0.00,weatherlink.com 1.10,2013-08-26 21:59:00,
2013-08-26 17:14:00,90.6,68.0,29.91,ESE,104,2.0,9.0,47,0.00,,,0.00,weatherlink.com 1.10,2013-08-26 22:14:00,
2013-08-26 17:29:00,89.8,67.0,29.91,East,98,2.0,9.0,47,0.00,,,0.00,weatherlink.com 1.10,2013-08-26 22:29:00,
2013-08-26 17:44:00,88.5,67.0,29.91,East,84,5.0,10.0,49,0.00,,,0.00,weatherlink.com 1.10,2013-08-26 22:44:00,
2013-08-26 17:59:00,89.0,67.0,29.91,East,84,3.0,6.0,49,0.00,,,0.00,weatherlink.com 1.10,2013-08-26 22:59:00,
2013-08-26 18:14:00,89.2,66.0,29.91,East,94,1.0,9.0,47,0.00,,,0.00,weatherlink.com 1.10,2013-08-26 23:14:00,
2013-08-26 18:29:00,88.9,66.0,29.91,SE,144,2.0,9.0,47,0.00,,,0.00,weatherlink.com 1.10,2013-08-26 23:29:00,
2013-08-26 18:44:00,89.1,67.0,29.90,East,96,1.0,9.0,48,0.00,,,0.00,weatherlink.com 1.10,2013-08-26 23:44:00,
2013-08-26 18:59:00,88.8,67.0,29.90,ESE,111,10.0,10.0,48,0.00,,,0.00,weatherlink.com 1.10,2013-08-26 23:59:00,
2013-08-26 19:14:00,87.3,66.0,29.90,East,98,2.0,9.0,50,0.00,,,0.00,weatherlink.com 1.10,2013-08-27 00:14:00,
2013-08-26 19:29:00,86.8,67.0,29.90,ESE,117,2.0,14.0,52,0.00,,,0.00,weatherlink.com 1.10,2013-08-27 00:29:00,
2013-08-26 19:44:00,85.6,69.0,29.91,SSE,147,6.0,12.0,57,0.00,,,0.00,weatherlink.com 1.10,2013-08-27 00:44:00,
2013-08-26 19:59:00,84.3,69.0,29.91,SE,138,6.0,11.0,60,0.00,,,0.00,weatherlink.com 1.10,2013-08-27 00:59:00,
2013-08-26 20:14:00,83.6,69.0,29.92,SE,140,5.0,12.0,61,0.00,,,0.00,weatherlink.com 1.10,2013-08-27 01:14:00,
2013-08-26 20:29:00,82.9,68.0,29.92,SE,131,3.0,10.0,62,0.00,,,0.00,weatherlink.com 1.10,2013-08-27 01:29:00,
2013-08-26 20:44:00,82.2,69.0,29.93,SSE,155,4.0,10.0,64,0.00,,,0.00,weatherlink.com 1.10,2013-08-27 01:44:00,
2013-08-26 20:59:00,81.7,68.0,29.93,SSE,155,3.0,9.0,64,0.00,,,0.00,weatherlink.com 1.10,2013-08-27 01:59:00,
2013-08-26 21:14:00,81.2,69.0,29.93,SE,128,3.0,8.0,66,0.00,,,0.00,weatherlink.com 1.10,2013-08-27 02:14:00,
2013-08-26 21:29:00,80.6,68.0,29.93,SE,146,1.0,8.0,66,0.00,,,0.00,weatherlink.com 1.10,2013-08-27 02:29:00,
2013-08-26 21:44:00,80.0,69.0,29.93,SE,141,2.0,9.0,69,0.00,,,0.00,weatherlink.com 1.10,2013-08-27 02:44:00,
2013-08-26 21:59:00,79.1,69.0,29.94,SE,144,4.0,11.0,72,0.00,,,0.00,weatherlink.com 1.10,2013-08-27 02:59:00,
2013-08-26 22:14:00,77.9,69.0,29.93,East,98,3.0,10.0,75,0.00,,,0.00,weatherlink.com 1.10,2013-08-27 03:14:00,
2013-08-26 22:29:00,77.0,69.0,29.94,ESE,105,2.0,7.0,77,0.00,,,0.00,weatherlink.com 1.10,2013-08-27 03:29:00,
2013-08-26 22:44:00,76.2,70.0,29.94,East,95,2.0,10.0,80,0.00,,,0.00,weatherlink.com 1.10,2013-08-27 03:44:00,
2013-08-26 22:59:00,75.7,70.0,29.95,ESE,113,0.0,5.0,81,0.00,,,0.00,weatherlink.com 1.10,2013-08-27 03:59:00,
2013-08-26 23:14:00,75.1,69.0,29.95,ESE,120,0.0,11.0,82,0.00,,,0.00,weatherlink.com 1.10,2013-08-27 04:14:00,
2013-08-26 23:29:00,74.7,69.0,29.95,SE,126,4.0,4.0,83,0.00,,,0.00,weatherlink.com 1.10,2013-08-27 04:29:00,
2013-08-26 23:44:00,74.4,69.0,29.95,SE,125,1.0,3.0,83,0.00,,,0.00,weatherlink.com 1.10,2013-08-27 04:44:00,
2013-08-26 23:59:00,74.2,69.0,29.95,ESE,123,0.0,3.0,83,0.00,,,0.00,weatherlink.com 1.10,2013-08-27 04:59:00,